sensor_id;sensor_type;location;lat;lon;timestamp;pressure;altitude;pressure_sealevel;temperature;humidity
19789;BME280;10054;59.332;18.244;2023-01-01T00:01:13;99269.23;;;2.88;100.00
19789;BME280;10054;59.332;18.244;2023-01-01T00:03:42;99268.02;;;2.87;100.00
19789;BME280;10054;59.332;18.244;2023-01-01T00:06:12;99271.54;;;2.86;100.00
19789;BME280;10054;59.332;18.244;2023-01-01T00:08:41;99272.92;;;2.84;100.00
19789;BME280;10054;59.332;18.244;2023-01-01T00:11:10;99270.78;;;2.84;100.00
19789;BME280;10054;59.332;18.244;2023-01-01T00:13:40;99268.17;;;2.84;100.00
19789;BME280;10054;59.332;18.244;2023-01-01T00:16:12;99263.05;;;2.82;100.00
19789;BME280;10054;59.332;18.244;2023-01-01T00:18:41;99263.05;;;2.82;100.00
19789;BME280;10054;59.332;18.244;2023-01-01T00:21:12;99264.59;;;2.78;100.00
19789;BME280;10054;59.332;18.244;2023-01-01T00:23:41;99263.83;;;2.76;100.00
19789;BME280;10054;59.332;18.244;2023-01-01T00:26:12;99259.63;;;2.73;100.00
19789;BME280;10054;59.332;18.244;2023-01-01T00:28:41;99259.86;;;2.69;100.00
19789;BME280;10054;59.332;18.244;2023-01-01T00:31:12;99264.69;;;2.68;100.00
19789;BME280;10054;59.332;18.244;2023-01-01T00:33:44;99270.81;;;2.67;100.00
19789;BME280;10054;59.332;18.244;2023-01-01T00:36:14;99274.88;;;2.63;100.00
19789;BME280;10054;59.332;18.244;2023-01-01T00:38:44;99279.86;;;2.59;100.00
19789;BME280;10054;59.332;18.244;2023-01-01T00:41:14;99274.66;;;2.59;100.00
19789;BME280;10054;59.332;18.244;2023-01-01T00:43:43;99281.23;;;2.58;100.00
19789;BME280;10054;59.332;18.244;2023-01-01T00:46:12;99281.40;;;2.55;100.00
19789;BME280;10054;59.332;18.244;2023-01-01T00:48:41;99283.62;;;2.54;100.00
19789;BME280;10054;59.332;18.244;2023-01-01T00:51:10;99281.02;;;2.54;100.00
19789;BME280;10054;59.332;18.244;2023-01-01T00:53:39;99282.78;;;2.53;100.00
19789;BME280;10054;59.332;18.244;2023-01-01T00:56:08;99290.36;;;2.49;100.00
19789;BME280;10054;59.332;18.244;2023-01-01T00:58:37;99284.70;;;2.50;100.00
19789;BME280;10054;59.332;18.244;2023-01-01T01:01:06;99286.84;;;2.50;100.00
19789;BME280;10054;59.332;18.244;2023-01-01T01:03:39;99289.52;;;2.49;100.00
19789;BME280;10054;59.332;18.244;2023-01-01T01:06:10;99291.28;;;2.48;100.00
19789;BME280;10054;59.332;18.244;2023-01-01T01:08:41;99289.98;;;2.48;100.00
19789;BME280;10054;59.332;18.244;2023-01-01T01:11:13;99302.07;;;2.49;100.00
19789;BME280;10054;59.332;18.244;2023-01-01T01:13:44;99296.56;;;2.47;100.00
19789;BME280;10054;59.332;18.244;2023-01-01T01:18:50;99304.37;;;2.47;100.00
19789;BME280;10054;59.332;18.244;2023-01-01T01:21:21;99308.81;;;2.45;100.00
19789;BME280;10054;59.332;18.244;2023-01-01T01:23:51;99311.88;;;2.44;100.00
19789;BME280;10054;59.332;18.244;2023-01-01T01:26:23;99304.98;;;2.43;100.00
19789;BME280;10054;59.332;18.244;2023-01-01T01:28:53;99319.83;;;2.41;100.00
19789;BME280;10054;59.332;18.244;2023-01-01T01:31:24;99334.30;;;2.38;100.00
19789;BME280;10054;59.332;18.244;2023-01-01T01:33:53;99327.56;;;2.43;100.00
19789;BME280;10054;59.332;18.244;2023-01-01T01:36:23;99340.63;;;2.93;100.00
19789;BME280;10054;59.332;18.244;2023-01-01T01:38:52;99344.38;;;2.96;100.00
19789;BME280;10054;59.332;18.244;2023-01-01T01:41:23;99345.08;;;2.82;100.00
19789;BME280;10054;59.332;18.244;2023-01-01T01:44:51;99356.89;;;2.72;100.00
19789;BME280;10054;59.332;18.244;2023-01-01T01:46:40;99354.52;;;2.59;100.00
19789;BME280;10054;59.332;18.244;2023-01-01T01:49:13;99357.73;;;2.47;100.00
19789;BME280;10054;59.332;18.244;2023-01-01T01:51:43;99353.59;;;2.43;100.00
19789;BME280;10054;59.332;18.244;2023-01-01T01:54:14;99352.06;;;2.39;100.00
19789;BME280;10054;59.332;18.244;2023-01-01T01:56:52;99355.80;;;2.33;100.00
19789;BME280;10054;59.332;18.244;2023-01-01T01:59:22;99362.08;;;2.29;100.00
19789;BME280;10054;59.332;18.244;2023-01-01T02:01:52;99359.47;;;2.29;100.00
19789;BME280;10054;59.332;18.244;2023-01-01T02:04:22;99365.28;;;2.25;100.00
19789;BME280;10054;59.332;18.244;2023-01-01T02:06:51;99362.09;;;2.20;100.00
19789;BME280;10054;59.332;18.244;2023-01-01T02:09:22;99361.18;;;2.21;100.00
19789;BME280;10054;59.332;18.244;2023-01-01T02:11:51;99366.84;;;2.21;100.00
19789;BME280;10054;59.332;18.244;2023-01-01T02:14:20;99372.58;;;2.19;100.00
19789;BME280;10054;59.332;18.244;2023-01-01T02:16:56;99373.11;;;2.17;100.00
19789;BME280;10054;59.332;18.244;2023-01-01T02:19:39;99380.38;;;2.19;100.00
19789;BME280;10054;59.332;18.244;2023-01-01T02:22:14;99377.85;;;2.17;100.00
19789;BME280;10054;59.332;18.244;2023-01-01T02:24:55;99376.31;;;2.13;100.00
19789;BME280;10054;59.332;18.244;2023-01-01T02:30:26;99395.67;;;2.16;100.00
19789;BME280;10054;59.332;18.244;2023-01-01T02:33:01;99397.52;;;2.14;100.00
19789;BME280;10054;59.332;18.244;2023-01-01T02:35:33;99399.34;;;2.12;100.00
19789;BME280;10054;59.332;18.244;2023-01-01T02:38:26;99404.02;;;2.14;100.00
19789;BME280;10054;59.332;18.244;2023-01-01T02:40:59;99408.30;;;2.15;100.00
19789;BME280;10054;59.332;18.244;2023-01-01T02:43:29;99405.92;;;2.11;100.00
19789;BME280;10054;59.332;18.244;2023-01-01T02:45:58;99410.66;;;2.11;100.00
19789;BME280;10054;59.332;18.244;2023-01-01T02:48:45;99404.61;;;2.11;100.00
19789;BME280;10054;59.332;18.244;2023-01-01T03:03:08;99423.19;;;2.03;100.00
19789;BME280;10054;59.332;18.244;2023-01-01T03:05:39;99420.52;;;2.05;100.00
19789;BME280;10054;59.332;18.244;2023-01-01T03:08:20;99417.59;;;2.02;100.00
19789;BME280;10054;59.332;18.244;2023-01-01T03:16:42;99429.90;;;1.98;100.00
19789;BME280;10054;59.332;18.244;2023-01-01T03:19:14;99430.43;;;1.96;100.00
19789;BME280;10054;59.332;18.244;2023-01-01T03:21:57;99426.14;;;1.95;100.00
19789;BME280;10054;59.332;18.244;2023-01-01T03:24:36;99436.41;;;1.98;100.00
19789;BME280;10054;59.332;18.244;2023-01-01T03:27:17;99434.86;;;1.94;100.00
19789;BME280;10054;59.332;18.244;2023-01-01T03:29:47;99432.72;;;1.94;100.00
19789;BME280;10054;59.332;18.244;2023-01-01T03:32:20;99431.87;;;1.93;100.00
19789;BME280;10054;59.332;18.244;2023-01-01T03:34:53;99433.70;;;1.91;100.00
19789;BME280;10054;59.332;18.244;2023-01-01T03:37:25;99428.25;;;1.87;100.00
19789;BME280;10054;59.332;18.244;2023-01-01T03:39:56;99421.82;;;1.86;100.00
19789;BME280;10054;59.332;18.244;2023-01-01T03:42:34;99428.25;;;1.87;100.00
19789;BME280;10054;59.332;18.244;2023-01-01T03:45:15;99427.02;;;1.86;100.00
19789;BME280;10054;59.332;18.244;2023-01-01T03:47:42;99429.09;;;1.88;100.00
19789;BME280;10054;59.332;18.244;2023-01-01T03:50:11;99439.36;;;1.91;100.00
19789;BME280;10054;59.332;18.244;2023-01-01T04:03:24;99475.41;;;1.80;100.00
19789;BME280;10054;59.332;18.244;2023-01-01T04:05:54;99474.70;;;1.76;100.00
19789;BME280;10054;59.332;18.244;2023-01-01T04:08:23;99467.35;;;1.76;100.00
19789;BME280;10054;59.332;18.244;2023-01-01T04:10:54;99465.73;;;1.73;100.00
19789;BME280;10054;59.332;18.244;2023-01-01T04:13:24;99468.41;;;1.72;100.00
19789;BME280;10054;59.332;18.244;2023-01-01T04:15:52;99481.15;;;1.68;100.00
19789;BME280;10054;59.332;18.244;2023-01-01T04:18:21;99476.86;;;1.67;100.00
19789;BME280;10054;59.332;18.244;2023-01-01T04:20:50;99472.58;;;1.65;100.00
19789;BME280;10054;59.332;18.244;2023-01-01T04:23:19;99474.33;;;1.65;100.00
19789;BME280;10054;59.332;18.244;2023-01-01T04:25:48;99473.94;;;1.64;100.00
19789;BME280;10054;59.332;18.244;2023-01-01T04:28:17;99481.73;;;1.64;100.00
19789;BME280;10054;59.332;18.244;2023-01-01T04:30:48;99480.12;;;1.61;100.00
19789;BME280;10054;59.332;18.244;2023-01-01T04:33:16;99482.72;;;1.61;100.00
19789;BME280;10054;59.332;18.244;2023-01-01T04:35:45;99471.55;;;1.59;100.00
19789;BME280;10054;59.332;18.244;2023-01-01T04:38:14;99485.06;;;1.57;100.00
19789;BME280;10054;59.332;18.244;2023-01-01T04:40:43;99495.53;;;1.56;100.00
19789;BME280;10054;59.332;18.244;2023-01-01T04:43:11;99491.70;;;1.54;100.00
19789;BME280;10054;59.332;18.244;2023-01-01T04:45:40;99496.11;;;1.52;100.00
19789;BME280;10054;59.332;18.244;2023-01-01T04:48:09;99499.30;;;1.49;100.00
19789;BME280;10054;59.332;18.244;2023-01-01T04:50:38;99493.17;;;1.41;100.00
19789;BME280;10054;59.332;18.244;2023-01-01T04:53:06;99498.43;;;1.40;100.00
19789;BME280;10054;59.332;18.244;2023-01-01T04:55:36;99492.91;;;1.37;100.00
19789;BME280;10054;59.332;18.244;2023-01-01T04:58:05;99495.05;;;1.38;100.00
19789;BME280;10054;59.332;18.244;2023-01-01T05:00:34;99504.73;;;1.34;100.00
19789;BME280;10054;59.332;18.244;2023-01-01T05:03:03;99504.41;;;1.31;100.00
19789;BME280;10054;59.332;18.244;2023-01-01T05:05:32;99511.81;;;1.30;100.00
19789;BME280;10054;59.332;18.244;2023-01-01T05:08:01;99516.16;;;1.30;100.00
19789;BME280;10054;59.332;18.244;2023-01-01T05:10:29;99520.65;;;1.26;100.00
19789;BME280;10054;59.332;18.244;2023-01-01T05:12:58;99514.67;;;1.24;100.00
19789;BME280;10054;59.332;18.244;2023-01-01T05:15:26;99517.27;;;1.24;100.00
19789;BME280;10054;59.332;18.244;2023-01-01T05:17:55;99521.03;;;1.17;100.00
19789;BME280;10054;59.332;18.244;2023-01-01T05:20:24;99521.61;;;1.14;100.00
19789;BME280;10054;59.332;18.244;2023-01-01T05:22:53;99514.73;;;1.13;100.00
19789;BME280;10054;59.332;18.244;2023-01-01T05:25:22;99519.59;;;1.10;100.00
19789;BME280;10054;59.332;18.244;2023-01-01T05:27:51;99520.17;;;1.07;100.00
19789;BME280;10054;59.332;18.244;2023-01-01T05:30:21;99525.37;;;1.07;100.00
19789;BME280;10054;59.332;18.244;2023-01-01T05:32:50;99529.52;;;1.01;100.00
19789;BME280;10054;59.332;18.244;2023-01-01T05:35:20;99522.70;;;0.98;100.00
19789;BME280;10054;59.332;18.244;2023-01-01T05:37:49;99525.29;;;0.98;100.00
19789;BME280;10054;59.332;18.244;2023-01-01T05:40:18;99538.67;;;0.99;100.00
19789;BME280;10054;59.332;18.244;2023-01-01T05:42:48;99541.78;;;0.97;100.00
19789;BME280;10054;59.332;18.244;2023-01-01T05:45:17;99544.37;;;0.97;100.00
19789;BME280;10054;59.332;18.244;2023-01-01T05:47:46;99544.83;;;0.96;100.00
19789;BME280;10054;59.332;18.244;2023-01-01T05:50:15;99555.03;;;1.01;100.00
19789;BME280;10054;59.332;18.244;2023-01-01T05:52:43;99559.19;;;1.05;100.00
19789;BME280;10054;59.332;18.244;2023-01-01T05:55:12;99561.21;;;1.09;100.00
19789;BME280;10054;59.332;18.244;2023-01-01T05:57:41;99550.77;;;1.10;100.00
19789;BME280;10054;59.332;18.244;2023-01-01T06:00:11;99546.29;;;1.14;100.00
19789;BME280;10054;59.332;18.244;2023-01-01T06:02:39;99551.87;;;1.15;100.00
19789;BME280;10054;59.332;18.244;2023-01-01T06:05:09;99544.92;;;1.15;100.00
19789;BME280;10054;59.332;18.244;2023-01-01T06:07:38;99550.06;;;1.17;100.00
19789;BME280;10054;59.332;18.244;2023-01-01T06:10:07;99550.84;;;1.19;100.00
19789;BME280;10054;59.332;18.244;2023-01-01T06:12:36;99549.99;;;1.18;100.00
19789;BME280;10054;59.332;18.244;2023-01-01T06:15:05;99550.97;;;1.16;100.00
19789;BME280;10054;59.332;18.244;2023-01-01T06:17:34;99560.05;;;1.16;100.00
19789;BME280;10054;59.332;18.244;2023-01-01T06:20:03;99557.00;;;1.16;100.00
19789;BME280;10054;59.332;18.244;2023-01-01T06:22:35;99564.08;;;1.13;100.00
19789;BME280;10054;59.332;18.244;2023-01-01T06:25:04;99561.09;;;1.12;100.00
19789;BME280;10054;59.332;18.244;2023-01-01T06:27:34;99554.66;;;1.10;100.00
19789;BME280;10054;59.332;18.244;2023-01-01T06:30:05;99560.49;;;1.05;100.00
19789;BME280;10054;59.332;18.244;2023-01-01T06:32:34;99575.16;;;1.06;100.00
19789;BME280;10054;59.332;18.244;2023-01-01T06:35:04;99576.08;;;1.05;100.00
19789;BME280;10054;59.332;18.244;2023-01-01T06:37:32;99576.02;;;1.07;100.00
19789;BME280;10054;59.332;18.244;2023-01-01T06:40:01;99575.16;;;1.06;100.00
19789;BME280;10054;59.332;18.244;2023-01-01T06:42:30;99576.02;;;1.07;100.00
19789;BME280;10054;59.332;18.244;2023-01-01T06:44:59;99581.27;;;1.05;100.00
19789;BME280;10054;59.332;18.244;2023-01-01T06:47:27;99583.02;;;1.05;100.00
19789;BME280;10054;59.332;18.244;2023-01-01T06:49:56;99579.13;;;1.05;100.00
19789;BME280;10054;59.332;18.244;2023-01-01T06:52:24;99594.31;;;1.04;100.00
19789;BME280;10054;59.332;18.244;2023-01-01T06:54:53;99605.28;;;1.00;100.00
19789;BME280;10054;59.332;18.244;2023-01-01T06:57:22;99601.84;;;0.99;100.00
19789;BME280;10054;59.332;18.244;2023-01-01T06:59:51;99608.33;;;0.99;100.00
19789;BME280;10054;59.332;18.244;2023-01-01T07:02:19;99605.40;;;0.97;100.00
19789;BME280;10054;59.332;18.244;2023-01-01T07:04:48;99613.64;;;0.96;100.00
19789;BME280;10054;59.332;18.244;2023-01-01T07:07:16;99621.43;;;0.96;100.00
19789;BME280;10054;59.332;18.244;2023-01-01T07:09:45;99620.64;;;0.94;100.00
19789;BME280;10054;59.332;18.244;2023-01-01T07:12:14;99633.23;;;0.93;100.00
19789;BME280;10054;59.332;18.244;2023-01-01T07:14:42;99636.28;;;0.93;100.00
19789;BME280;10054;59.332;18.244;2023-01-01T07:17:11;99631.66;;;0.89;100.00
19789;BME280;10054;59.332;18.244;2023-01-01T07:19:39;99622.24;;;0.87;100.00
19789;BME280;10054;59.332;18.244;2023-01-01T07:22:08;99633.47;;;0.87;100.00
19789;BME280;10054;59.332;18.244;2023-01-01T07:24:38;99638.72;;;0.86;100.00
19789;BME280;10054;59.332;18.244;2023-01-01T07:27:06;99640.02;;;0.86;100.00
19789;BME280;10054;59.332;18.244;2023-01-01T07:29:35;99639.30;;;0.82;100.00
19789;BME280;10054;59.332;18.244;2023-01-01T07:32:03;99642.00;;;0.79;100.00
19789;BME280;10054;59.332;18.244;2023-01-01T07:34:32;99637.72;;;0.78;100.00
19789;BME280;10054;59.332;18.244;2023-01-01T07:37:01;99642.19;;;0.75;100.00
19789;BME280;10054;59.332;18.244;2023-01-01T07:39:29;99638.49;;;0.70;100.00
19789;BME280;10054;59.332;18.244;2023-01-01T07:41:58;99646.34;;;0.69;100.00
19789;BME280;10054;59.332;18.244;2023-01-01T07:44:26;99652.49;;;0.66;100.00
19789;BME280;10054;59.332;18.244;2023-01-01T07:47:08;99656.05;;;0.63;100.00
19789;BME280;10054;59.332;18.244;2023-01-01T07:49:35;99657.52;;;0.59;100.00
19789;BME280;10054;59.332;18.244;2023-01-01T07:52:04;99651.25;;;0.53;100.00
19789;BME280;10054;59.332;18.244;2023-01-01T07:54:32;99653.96;;;0.50;100.00
19789;BME280;10054;59.332;18.244;2023-01-01T07:57:01;99655.38;;;0.47;100.00
19789;BME280;10054;59.332;18.244;2023-01-01T07:59:29;99657.63;;;0.44;100.00
19789;BME280;10054;59.332;18.244;2023-01-01T08:01:58;99655.26;;;0.38;100.00
19789;BME280;10054;59.332;18.244;2023-01-01T08:04:26;99663.99;;;0.36;100.00
19789;BME280;10054;59.332;18.244;2023-01-01T08:06:55;99668.45;;;0.44;100.00
19789;BME280;10054;59.332;18.244;2023-01-01T08:09:24;99679.80;;;0.98;100.00
19789;BME280;10054;59.332;18.244;2023-01-01T08:11:52;99682.31;;;1.11;100.00
19789;BME280;10054;59.332;18.244;2023-01-01T08:14:21;99685.80;;;0.88;100.00
19789;BME280;10054;59.332;18.244;2023-01-01T08:16:49;99688.15;;;0.61;100.00
19789;BME280;10054;59.332;18.244;2023-01-01T08:19:18;99695.52;;;0.37;100.00
19789;BME280;10054;59.332;18.244;2023-01-01T08:21:47;99699.55;;;0.20;100.00
19789;BME280;10054;59.332;18.244;2023-01-01T08:24:15;99701.72;;;0.08;100.00
19789;BME280;10054;59.332;18.244;2023-01-01T08:26:47;99697.14;;;0.03;100.00
19789;BME280;10054;59.332;18.244;2023-01-01T08:29:17;99697.55;;;-0.08;100.00
19789;BME280;10054;59.332;18.244;2023-01-01T08:31:46;99704.23;;;-0.14;100.00
19789;BME280;10054;59.332;18.244;2023-01-01T08:34:15;99709.17;;;-0.20;100.00
19789;BME280;10054;59.332;18.244;2023-01-01T08:36:43;99716.09;;;-0.20;100.00
19789;BME280;10054;59.332;18.244;2023-01-01T08:39:12;99726.41;;;-0.19;100.00
19789;BME280;10054;59.332;18.244;2023-01-01T08:41:40;99732.49;;;-0.20;100.00
19789;BME280;10054;59.332;18.244;2023-01-01T08:44:09;99732.99;;;-0.22;100.00
19789;BME280;10054;59.332;18.244;2023-01-01T08:46:37;99729.66;;;-0.25;100.00
19789;BME280;10054;59.332;18.244;2023-01-01T08:49:06;99738.77;;;-0.27;100.00
19789;BME280;10054;59.332;18.244;2023-01-01T08:51:34;99750.48;;;-0.28;100.00
19789;BME280;10054;59.332;18.244;2023-01-01T08:54:03;99749.73;;;-0.32;100.00
19789;BME280;10054;59.332;18.244;2023-01-01T08:56:32;99755.42;;;-0.34;100.00
19789;BME280;10054;59.332;18.244;2023-01-01T08:59:01;99755.66;;;0.48;100.00
19789;BME280;10054;59.332;18.244;2023-01-01T09:01:29;99759.47;;;0.62;100.00
19789;BME280;10054;59.332;18.244;2023-01-01T09:03:58;99772.34;;;0.41;100.00
19789;BME280;10054;59.332;18.244;2023-01-01T09:06:26;99776.58;;;0.05;100.00
19789;BME280;10054;59.332;18.244;2023-01-01T09:08:55;99788.67;;;-0.20;100.00
19789;BME280;10054;59.332;18.244;2023-01-01T09:11:26;99792.64;;;-0.37;100.00
19789;BME280;10054;59.332;18.244;2023-01-01T09:13:55;99794.71;;;-0.48;100.00
19789;BME280;10054;59.332;18.244;2023-01-01T09:16:23;99799.94;;;-0.49;100.00
19789;BME280;10054;59.332;18.244;2023-01-01T09:18:52;99802.13;;;-0.50;100.00
19789;BME280;10054;59.332;18.244;2023-01-01T09:21:21;99800.73;;;-0.47;100.00
19789;BME280;10054;59.332;18.244;2023-01-01T09:23:50;99804.09;;;-0.44;100.00
19789;BME280;10054;59.332;18.244;2023-01-01T09:26:18;99806.09;;;-0.39;100.00
19789;BME280;10054;59.332;18.244;2023-01-01T09:28:47;99807.20;;;-0.32;100.00
19789;BME280;10054;59.332;18.244;2023-01-01T09:31:15;99814.83;;;-0.28;100.00
19789;BME280;10054;59.332;18.244;2023-01-01T09:33:44;99819.91;;;-0.25;100.00
19789;BME280;10054;59.332;18.244;2023-01-01T09:38:51;99819.58;;;-0.14;100.00
19789;BME280;10054;59.332;18.244;2023-01-01T09:44:17;99838.23;;;-0.03;100.00
19789;BME280;10054;59.332;18.244;2023-01-01T09:46:42;99832.42;;;0.02;100.00
19789;BME280;10054;59.332;18.244;2023-01-01T09:49:24;99838.20;;;0.37;100.00
19789;BME280;10054;59.332;18.244;2023-01-01T09:51:53;99836.89;;;0.50;100.00
19789;BME280;10054;59.332;18.244;2023-01-01T09:54:43;99842.24;;;0.45;100.00
19789;BME280;10054;59.332;18.244;2023-01-01T09:57:10;99849.78;;;0.40;100.00
19789;BME280;10054;59.332;18.244;2023-01-01T09:59:39;99857.72;;;0.35;100.00
19789;BME280;10054;59.332;18.244;2023-01-01T10:02:31;99853.52;;;0.31;100.00
19789;BME280;10054;59.332;18.244;2023-01-01T10:07:56;99848.14;;;0.24;100.00
19789;BME280;10054;59.332;18.244;2023-01-01T10:10:45;99853.77;;;0.23;100.00
19789;BME280;10054;59.332;18.244;2023-01-01T10:13:23;99852.48;;;0.23;100.00
19789;BME280;10054;59.332;18.244;2023-01-01T10:16:07;99856.81;;;0.23;100.00
19789;BME280;10054;59.332;18.244;2023-01-01T10:18:33;99852.58;;;0.20;100.00
19789;BME280;10054;59.332;18.244;2023-01-01T10:21:18;99854.77;;;0.19;100.00
19789;BME280;10054;59.332;18.244;2023-01-01T10:24:03;99858.27;;;0.18;100.00
19789;BME280;10054;59.332;18.244;2023-01-01T10:26:29;99860.05;;;0.16;100.00
19789;BME280;10054;59.332;18.244;2023-01-01T10:29:18;99872.48;;;0.20;100.00
19789;BME280;10054;59.332;18.244;2023-01-01T10:31:46;99880.16;;;0.23;100.00
19789;BME280;10054;59.332;18.244;2023-01-01T10:34:26;99866.14;;;0.28;100.00
19789;BME280;10054;59.332;18.244;2023-01-01T10:36:59;99865.15;;;0.32;100.00
19789;BME280;10054;59.332;18.244;2023-01-01T10:39:28;99862.35;;;0.39;100.00
19789;BME280;10054;59.332;18.244;2023-01-01T10:41:58;99862.25;;;0.42;100.00
19789;BME280;10054;59.332;18.244;2023-01-01T10:44:32;99864.75;;;0.45;100.00
19789;BME280;10054;59.332;18.244;2023-01-01T10:47:25;99862.95;;;0.47;100.00
19789;BME280;10054;59.332;18.244;2023-01-01T10:52:37;99862.05;;;0.48;100.00
19789;BME280;10054;59.332;18.244;2023-01-01T10:55:22;99871.98;;;0.48;100.00
19789;BME280;10054;59.332;18.244;2023-01-01T10:57:51;99874.97;;;0.49;100.00
19789;BME280;10054;59.332;18.244;2023-01-01T11:00:26;99877.56;;;0.49;100.00
19789;BME280;10054;59.332;18.244;2023-01-01T11:03:18;99881.71;;;0.42;100.00
19789;BME280;10054;59.332;18.244;2023-01-01T11:06:05;99885.70;;;0.39;100.00
19789;BME280;10054;59.332;18.244;2023-01-01T11:08:36;99897.02;;;0.36;100.00
19789;BME280;10054;59.332;18.244;2023-01-01T11:11:05;99894.93;;;0.34;100.00
19789;BME280;10054;59.332;18.244;2023-01-01T11:13:34;99902.81;;;0.31;100.00
19789;BME280;10054;59.332;18.244;2023-01-01T11:16:05;99897.67;;;0.29;100.00
19789;BME280;10054;59.332;18.244;2023-01-01T11:18:34;99904.16;;;0.29;100.00
19789;BME280;10054;59.332;18.244;2023-01-01T11:21:04;99906.30;;;0.30;100.00
19789;BME280;10054;59.332;18.244;2023-01-01T11:23:40;99907.65;;;0.28;100.00
19789;BME280;10054;59.332;18.244;2023-01-01T11:28:42;99912.44;;;0.27;100.00
19789;BME280;10054;59.332;18.244;2023-01-01T11:31:18;99909.00;;;0.27;100.00
19789;BME280;10054;59.332;18.244;2023-01-01T11:33:51;99906.90;;;0.25;100.00
19789;BME280;10054;59.332;18.244;2023-01-01T11:36:29;99907.80;;;0.24;100.00
19789;BME280;10054;59.332;18.244;2023-01-01T11:39:21;99913.43;;;0.23;100.00
19789;BME280;10054;59.332;18.244;2023-01-01T11:41:51;99911.33;;;0.21;100.00
19789;BME280;10054;59.332;18.244;2023-01-01T11:44:41;99913.48;;;0.22;100.00
19789;BME280;10054;59.332;18.244;2023-01-01T11:50:23;99920.36;;;0.23;100.00
19789;BME280;10054;59.332;18.244;2023-01-01T11:52:53;99923.00;;;0.21;100.00
19789;BME280;10054;59.332;18.244;2023-01-01T11:55:42;99928.59;;;0.22;100.00
19789;BME280;10054;59.332;18.244;2023-01-01T11:58:23;99940.67;;;0.23;100.00
19789;BME280;10054;59.332;18.244;2023-01-01T12:00:54;99946.66;;;0.25;100.00
19789;BME280;10054;59.332;18.244;2023-01-01T12:03:29;99949.75;;;0.23;100.00
19789;BME280;10054;59.332;18.244;2023-01-01T12:09:02;99957.48;;;0.25;100.00
19789;BME280;10054;59.332;18.244;2023-01-01T12:11:48;99968.20;;;0.27;100.00
19789;BME280;10054;59.332;18.244;2023-01-01T12:17:19;99973.89;;;0.25;100.00
19789;BME280;10054;59.332;18.244;2023-01-01T12:22:30;99974.03;;;0.21;100.00
19789;BME280;10054;59.332;18.244;2023-01-01T12:24:58;99981.45;;;0.18;100.00
19789;BME280;10054;59.332;18.244;2023-01-01T12:30:11;99987.63;;;0.14;100.00
19789;BME280;10054;59.332;18.244;2023-01-01T12:41:38;100000.86;;;0.20;100.00
19789;BME280;10054;59.332;18.244;2023-01-01T12:44:10;100003.45;;;0.20;100.00
19789;BME280;10054;59.332;18.244;2023-01-01T12:49:35;100010.44;;;0.18;100.00
19789;BME280;10054;59.332;18.244;2023-01-01T12:52:10;100011.28;;;0.18;100.00
19789;BME280;10054;59.332;18.244;2023-01-01T13:00:17;100025.41;;;0.23;100.00
19789;BME280;10054;59.332;18.244;2023-01-01T13:03:02;100030.11;;;0.25;100.00
19789;BME280;10054;59.332;18.244;2023-01-01T13:05:33;100027.52;;;0.25;100.00
19789;BME280;10054;59.332;18.244;2023-01-01T13:07:59;100032.30;;;0.24;100.00
19789;BME280;10054;59.332;18.244;2023-01-01T13:10:35;100025.45;;;0.21;100.00
19789;BME280;10054;59.332;18.244;2023-01-01T13:13:04;100027.20;;;0.21;100.00
19789;BME280;10054;59.332;18.244;2023-01-01T13:18:17;100026.76;;;0.21;100.00
19789;BME280;10054;59.332;18.244;2023-01-01T13:21:01;100025.45;;;0.21;100.00
19789;BME280;10054;59.332;18.244;2023-01-01T13:34:33;100029.80;;;0.21;100.00
19789;BME280;10054;59.332;18.244;2023-01-01T13:37:29;100038.43;;;0.21;100.00
19789;BME280;10054;59.332;18.244;2023-01-01T13:42:46;100051.04;;;0.19;100.00
19789;BME280;10054;59.332;18.244;2023-01-01T13:45:41;100056.63;;;0.20;100.00
19789;BME280;10054;59.332;18.244;2023-01-01T13:57:00;100069.69;;;0.17;100.00
19789;BME280;10054;59.332;18.244;2023-01-01T13:59:50;100078.36;;;0.16;100.00
19789;BME280;10054;59.332;18.244;2023-01-01T14:02:34;100073.22;;;0.14;100.00
19789;BME280;10054;59.332;18.244;2023-01-01T14:07:42;100081.45;;;0.14;100.00
19789;BME280;10054;59.332;18.244;2023-01-01T14:13:13;100093.61;;;0.12;100.00
19789;BME280;10054;59.332;18.244;2023-01-01T14:15:55;100093.25;;;0.09;100.00
19789;BME280;10054;59.332;18.244;2023-01-01T14:21:11;100101.96;;;0.07;100.00
19789;BME280;10054;59.332;18.244;2023-01-01T14:23:42;100110.67;;;0.04;100.00
19789;BME280;10054;59.332;18.244;2023-01-01T14:26:08;100110.76;;;0.01;100.00
19789;BME280;10054;59.332;18.244;2023-01-01T14:28:38;100112.58;;;-0.01;100.00
19789;BME280;10054;59.332;18.244;2023-01-01T14:31:17;100112.62;;;-0.03;100.00
19789;BME280;10054;59.332;18.244;2023-01-01T14:33:41;100119.55;;;-0.03;100.00
19789;BME280;10054;59.332;18.244;2023-01-01T14:36:22;100130.41;;;-0.05;100.00
19789;BME280;10054;59.332;18.244;2023-01-01T14:38:53;100139.52;;;-0.07;100.00
19789;BME280;10054;59.332;18.244;2023-01-01T14:41:36;100145.68;;;-0.11;100.00
19789;BME280;10054;59.332;18.244;2023-01-01T14:44:18;100156.49;;;-0.11;100.00
19789;BME280;10054;59.332;18.244;2023-01-01T14:46:49;100168.16;;;-0.11;100.00
19789;BME280;10054;59.332;18.244;2023-01-01T14:49:27;100168.61;;;-0.12;100.00
19789;BME280;10054;59.332;18.244;2023-01-01T14:52:16;100179.02;;;-0.13;100.00
19789;BME280;10054;59.332;18.244;2023-01-01T14:54:42;100185.98;;;-0.15;100.00
19789;BME280;10054;59.332;18.244;2023-01-01T14:57:16;100194.64;;;-0.16;100.00
19789;BME280;10054;59.332;18.244;2023-01-01T14:59:47;100200.77;;;-0.19;100.00
19789;BME280;10054;59.332;18.244;2023-01-01T15:02:22;100210.35;;;-0.22;100.00
19789;BME280;10054;59.332;18.244;2023-01-01T15:04:51;100221.20;;;-0.24;100.00